Aviation Digital Data Service (ADDS)

Output produced by METARs form (2314 UTC 18 October 2019)
found at http://www.aviationweather.gov/metar/data/
 
Forecast for: HSSS (KHARTOUM (CIV/MI, SD)
Text: TAF HSSS 182300Z 1900/2006 VRB03KT CAVOK
Forecast period: 0000 UTC 19 October 2019 to 0600 UTC 20 October 2019
Forecast type: FROM: standard forecast or significant change
Winds: variable direction winds at 3 MPH (3 knots; 1.5 m/s)
Visibility: 6 or more miles 10+ km)
Ceiling: unknown
Clouds: missing
Weather: NSW  (no significant weather)
Text: TEMPO 1900/1909 6000 18009KT
Forecast period: 0000 to 0900 UTC 19 October 2019
Forecast type: TEMPORARY: The following changes expected for less than half the time period
Winds: from the S (180 degrees) at 10 MPH (9 knots; 4.6 m/s)
Visibility: 4 miles (6 km)
Ceiling: unknown
Clouds: missing
Weather: no significant weather forecast for this period
Text: TEMPO 1912/1919 9999 FEW040 SCT140
Forecast period: 1200 to 1900 UTC 19 October 2019
Forecast type: TEMPORARY: The following changes expected for less than half the time period
Visibility: 6 or more miles 10+ km)
Ceiling: at least 12,000 feet AGL
Clouds: few clouds at 4000 feet AGL
scattered clouds at 14000 feet AGL
Weather: no significant weather forecast for this period